Time;durP1;ratioP1;P1;durP2;ratioP2;P2;SDS_P1;SDS_P2;PMS_P1;PMS_P2;Temp;Humidity;BMP_temperature;BMP_pressure;BME280_temperature;BME280_humidity;BME280_pressure;Samples;Min_cycle;Max_cycle;Signal;HPM_P1;HPM_P2
2022/01/01 00:00:34;;;;;;;19.70;17.43;;;13.50;99.90;;;;;;4998138;28;20458;-73
2022/01/01 00:03:00;;;;;;;21.03;18.33;;;13.60;99.90;;;;;;4999595;28;20576;-71
2022/01/01 00:05:27;;;;;;;20.00;18.10;;;13.70;99.90;;;;;;5001463;28;20462;-70
2022/01/01 00:07:54;;;;;;;20.90;17.80;;;13.50;99.90;;;;;;4994188;28;20548;-69
2022/01/01 00:10:21;;;;;;;26.47;20.30;;;13.60;99.90;;;;;;4994809;28;20474;-69
2022/01/01 00:12:49;;;;;;;26.77;21.43;;;13.50;99.90;;;;;;5001148;28;20465;-73
2022/01/01 00:15:16;;;;;;;29.63;20.90;;;13.40;99.90;;;;;;5000747;28;21384;-69
2022/01/01 00:17:45;;;;;;;28.80;22.70;;;13.30;99.90;;;;;;5002770;28;20493;-71
2022/01/01 00:20:14;;;;;;;30.50;22.97;;;13.50;99.90;;;;;;5002444;28;20555;-70
2022/01/01 00:22:42;;;;;;;26.40;23.47;;;13.50;99.90;;;;;;4997749;28;21016;-70
2022/01/01 00:25:10;;;;;;;30.30;24.50;;;13.50;99.90;;;;;;4996325;28;20552;-71
2022/01/01 00:27:37;;;;;;;33.63;25.17;;;13.30;99.90;;;;;;4993399;28;20466;-69
2022/01/01 00:30:06;;;;;;;28.57;25.40;;;13.40;99.90;;;;;;5003323;28;20798;-72
2022/01/01 00:32:33;;;;;;;31.67;28.03;;;13.50;99.90;;;;;;5000895;28;21115;-70
2022/01/01 00:35:02;;;;;;;37.00;31.27;;;13.50;99.90;;;;;;4998829;28;20548;-70
2022/01/01 00:37:29;;;;;;;41.10;32.87;;;13.60;99.90;;;;;;5000895;28;20466;-70
2022/01/01 00:39:56;;;;;;;60.27;39.90;;;13.50;99.90;;;;;;5001547;28;20466;-70
2022/01/01 00:42:23;;;;;;;52.10;38.37;;;13.40;99.90;;;;;;5002070;28;20486;-70
2022/01/01 00:44:50;;;;;;;55.47;39.53;;;13.50;99.90;;;;;;4995712;28;20482;-72
2022/01/01 00:47:17;;;;;;;57.00;42.33;;;13.50;99.90;;;;;;5002069;28;20977;-69
2022/01/01 00:49:44;;;;;;;55.50;42.63;;;13.50;99.90;;;;;;5002294;28;20466;-70
2022/01/01 00:52:12;;;;;;;61.60;41.73;;;13.40;99.90;;;;;;4995868;28;20565;-70
2022/01/01 00:54:41;;;;;;;58.57;42.53;;;13.40;99.90;;;;;;5000858;28;20496;-72
2022/01/01 00:57:08;;;;;;;51.43;41.57;;;13.50;99.90;;;;;;5002021;28;20466;-69
2022/01/01 00:59:35;;;;;;;66.20;44.30;;;13.50;99.90;;;;;;4998769;28;21009;-70
2022/01/01 01:02:02;;;;;;;57.40;42.47;;;13.60;99.90;;;;;;5000750;28;20493;-70
2022/01/01 01:04:29;;;;;;;51.20;41.97;;;13.40;99.90;;;;;;4993214;28;20498;-70
2022/01/01 01:06:56;;;;;;;63.70;43.57;;;13.50;99.90;;;;;;5002362;28;20462;-73
2022/01/01 01:09:24;;;;;;;55.90;41.67;;;13.50;99.90;;;;;;4998836;28;20457;-70
2022/01/01 01:11:52;;;;;;;57.77;44.27;;;13.60;99.90;;;;;;4996974;28;20465;-71
2022/01/01 01:14:23;;;;;;;56.47;42.07;;;13.60;99.90;;;;;;5000193;28;20462;-74
2022/01/01 01:16:52;;;;;;;62.87;41.60;;;13.60;99.90;;;;;;4998276;28;20608;-69
2022/01/01 01:19:19;;;;;;;58.50;41.40;;;13.50;99.90;;;;;;5005444;28;20472;-69
2022/01/01 01:21:48;;;;;;;53.17;35.90;;;13.50;99.90;;;;;;4997216;28;20500;-70
2022/01/01 01:24:16;;;;;;;48.37;35.27;;;13.50;99.90;;;;;;4994802;28;20526;-69
2022/01/01 01:26:48;;;;;;;40.93;30.90;;;13.50;99.90;;;;;;5001138;28;20462;-70
2022/01/01 01:29:16;;;;;;;38.90;28.60;;;13.50;99.90;;;;;;4995229;28;21207;-70
2022/01/01 01:31:42;;;;;;;34.83;27.03;;;13.50;99.90;;;;;;4999041;28;20481;-69
2022/01/01 01:34:09;;;;;;;32.60;27.00;;;13.50;99.90;;;;;;5001373;28;20485;-71
2022/01/01 01:36:36;;;;;;;39.93;26.63;;;13.60;99.90;;;;;;4998015;28;20485;-72
2022/01/01 01:39:03;;;;;;;38.83;25.53;;;13.60;99.90;;;;;;4994874;28;20506;-70
2022/01/01 01:41:31;;;;;;;32.43;24.20;;;13.60;99.90;;;;;;4996765;28;20466;-70
2022/01/01 01:44:02;;;;;;;32.00;23.43;;;13.50;99.90;;;;;;5001091;28;20596;-74
2022/01/01 01:46:29;;;;;;;33.83;25.17;;;13.60;99.90;;;;;;5003085;28;20503;-68
2022/01/01 01:48:55;;;;;;;28.13;23.37;;;13.50;99.90;;;;;;4997657;28;20841;-70
2022/01/01 01:51:22;;;;;;;28.93;23.30;;;13.50;99.90;;;;;;4996884;28;20459;-73
2022/01/01 01:53:49;;;;;;;33.23;22.30;;;13.50;99.90;;;;;;4995709;28;20470;-69
2022/01/01 01:56:16;;;;;;;33.20;21.20;;;13.60;99.90;;;;;;5000016;28;20892;-70
2022/01/01 01:58:44;;;;;;;33.20;19.47;;;13.60;99.90;;;;;;5002103;28;20465;-69
2022/01/01 02:01:23;;;;;;;23.40;18.60;;;13.60;99.90;;;;;;5000816;28;20476;-70
2022/01/01 02:03:50;;;;;;;21.93;17.93;;;13.60;99.90;;;;;;4996414;28;20481;-69
2022/01/01 02:06:18;;;;;;;26.20;19.27;;;13.70;99.90;;;;;;5000640;28;20855;-70
2022/01/01 02:08:49;;;;;;;20.83;18.70;;;13.70;99.90;;;;;;4999464;28;20497;-70
2022/01/01 02:11:18;;;;;;;20.57;18.47;;;13.80;99.90;;;;;;4999244;28;20486;-69
2022/01/01 02:14:01;;;;;;;24.37;19.20;;;13.70;99.90;;;;;;4988967;28;20466;-69
2022/01/01 02:16:38;;;;;;;22.70;17.87;;;13.70;99.90;;;;;;5012137;28;20560;-71
2022/01/01 02:19:05;;;;;;;21.60;19.30;;;13.80;99.90;;;;;;4996717;28;20458;-69
2022/01/01 02:21:33;;;;;;;27.23;18.97;;;13.80;99.90;;;;;;4999817;28;20466;-72
2022/01/01 02:24:00;;;;;;;19.63;17.63;;;13.80;99.90;;;;;;4999094;28;20490;-70
2022/01/01 02:26:35;;;;;;;19.97;17.47;;;13.60;99.90;;;;;;5004505;28;20556;-70
2022/01/01 02:29:03;;;;;;;18.80;17.00;;;13.60;99.90;;;;;;4994054;28;21032;-69
2022/01/01 02:31:32;;;;;;;23.37;18.57;;;13.60;99.90;;;;;;5001145;28;20457;-69
2022/01/01 02:34:04;;;;;;;22.73;19.37;;;13.60;99.90;;;;;;4999486;28;20469;-71
2022/01/01 02:36:35;;;;;;;21.93;16.83;;;13.60;99.90;;;;;;5000459;28;20462;-71
2022/01/01 02:39:09;;;;;;;22.03;18.27;;;13.60;99.90;;;;;;4998846;28;20494;-70
2022/01/01 02:41:36;;;;;;;21.80;17.60;;;13.60;99.90;;;;;;4999058;28;20465;-71
2022/01/01 02:44:05;;;;;;;19.20;17.20;;;13.60;99.90;;;;;;4995761;28;21016;-70
2022/01/01 02:46:32;;;;;;;21.23;16.77;;;13.60;99.90;;;;;;4997882;28;20532;-69
2022/01/01 02:48:59;;;;;;;20.27;17.30;;;13.60;99.90;;;;;;4996618;28;20466;-69
2022/01/01 02:51:26;;;;;;;17.77;15.87;;;13.60;99.90;;;;;;5002328;28;20877;-69
2022/01/01 02:53:54;;;;;;;18.80;16.57;;;13.70;99.90;;;;;;4999439;28;20454;-69
2022/01/01 02:56:22;;;;;;;23.67;16.97;;;13.70;99.90;;;;;;5000140;28;20473;-69
2022/01/01 02:58:49;;;;;;;20.33;18.33;;;13.70;99.90;;;;;;5000205;28;20919;-69
2022/01/01 03:01:15;;;;;;;18.67;16.70;;;13.70;99.90;;;;;;5003061;28;20476;-73
2022/01/01 03:03:42;;;;;;;19.73;17.60;;;13.70;99.90;;;;;;4999823;28;20584;-72
2022/01/01 03:06:09;;;;;;;21.73;19.43;;;13.70;99.90;;;;;;5001611;28;20464;-70
2022/01/01 03:08:36;;;;;;;23.90;19.00;;;13.60;99.90;;;;;;5001284;28;20496;-70
2022/01/01 03:11:05;;;;;;;23.97;18.97;;;13.70;99.90;;;;;;5000786;28;20465;-70
2022/01/01 03:13:32;;;;;;;22.40;20.13;;;13.70;99.90;;;;;;4999621;28;20562;-69
2022/01/01 03:15:59;;;;;;;24.93;19.80;;;13.80;99.90;;;;;;5003885;28;20463;-70
2022/01/01 03:18:26;;;;;;;31.13;21.33;;;13.70;99.90;;;;;;5000083;28;21129;-74
2022/01/01 03:20:53;;;;;;;28.90;21.33;;;13.70;99.90;;;;;;5000103;28;20468;-71
2022/01/01 03:23:19;;;;;;;27.77;21.43;;;13.80;99.90;;;;;;4997080;28;20482;-69
2022/01/01 03:25:46;;;;;;;26.60;20.90;;;13.70;99.90;;;;;;4999856;28;20453;-69
2022/01/01 03:28:15;;;;;;;24.30;20.33;;;13.70;99.90;;;;;;4999489;28;20485;-69
2022/01/01 03:30:41;;;;;;;22.80;20.30;;;13.70;99.90;;;;;;5003604;28;20932;-70
2022/01/01 03:33:08;;;;;;;25.70;19.93;;;13.70;99.90;;;;;;4996139;28;20545;-69
2022/01/01 03:35:35;;;;;;;25.80;18.97;;;13.70;99.90;;;;;;4990701;28;20482;-69
2022/01/01 03:38:02;;;;;;;28.30;20.97;;;13.70;99.90;;;;;;5004685;28;20465;-71
2022/01/01 03:40:29;;;;;;;23.70;20.23;;;13.70;99.90;;;;;;5000121;28;20833;-72
2022/01/01 03:42:56;;;;;;;26.13;21.90;;;13.70;99.90;;;;;;4998948;28;20473;-70
2022/01/01 03:45:24;;;;;;;25.77;21.50;;;13.60;99.90;;;;;;5005986;28;20511;-70
2022/01/01 03:47:51;;;;;;;27.63;19.93;;;13.60;99.90;;;;;;5008021;28;20469;-72
2022/01/01 03:50:18;;;;;;;19.70;17.80;;;13.70;99.90;;;;;;4999905;28;20536;-70
2022/01/01 03:52:46;;;;;;;22.43;18.33;;;13.60;99.90;;;;;;4996336;28;20490;-69
2022/01/01 03:55:14;;;;;;;21.33;19.03;;;13.60;99.90;;;;;;5002053;28;20470;-74
2022/01/01 03:57:41;;;;;;;24.13;19.20;;;13.60;99.90;;;;;;4998431;28;20480;-70
2022/01/01 04:00:11;;;;;;;23.67;19.30;;;13.60;99.90;;;;;;5000731;28;20466;-70
2022/01/01 04:02:40;;;;;;;21.73;19.17;;;13.60;99.90;;;;;;5005871;28;20585;-69
2022/01/01 04:05:08;;;;;;;22.03;17.17;;;13.60;99.90;;;;;;4999048;28;20490;-69
2022/01/01 04:07:35;;;;;;;21.23;17.50;;;13.60;99.90;;;;;;5003897;28;20468;-71
2022/01/01 04:10:02;;;;;;;20.33;17.47;;;13.60;99.90;;;;;;5004634;28;20465;-69
2022/01/01 04:12:29;;;;;;;17.73;16.00;;;13.60;99.90;;;;;;5002716;28;20462;-72
2022/01/01 04:14:57;;;;;;;18.67;16.70;;;13.60;99.90;;;;;;5002178;28;20980;-71
2022/01/01 04:17:24;;;;;;;18.20;16.17;;;13.60;99.90;;;;;;5006922;28;20548;-70
2022/01/01 04:19:52;;;;;;;19.23;16.47;;;13.60;99.90;;;;;;4994083;28;20459;-69
2022/01/01 04:22:19;;;;;;;15.47;13.97;;;13.60;99.90;;;;;;5001295;28;20473;-71
2022/01/01 04:24:46;;;;;;;21.97;15.03;;;13.50;99.90;;;;;;4998707;28;20498;-71
2022/01/01 04:27:13;;;;;;;16.93;15.30;;;13.60;99.90;;;;;;5002172;28;20466;-70
2022/01/01 04:29:41;;;;;;;16.43;14.97;;;13.50;99.90;;;;;;4999596;28;20563;-70
2022/01/01 04:32:09;;;;;;;16.20;14.50;;;13.50;99.90;;;;;;5003543;28;20505;-71
2022/01/01 04:34:36;;;;;;;16.60;15.03;;;13.50;99.90;;;;;;5005466;28;20616;-69
2022/01/01 04:37:11;;;;;;;14.77;13.67;;;13.60;99.90;;;;;;4999591;28;20636;-69
2022/01/01 04:39:38;;;;;;;20.27;14.07;;;13.60;99.90;;;;;;5001327;28;20461;-72
2022/01/01 04:42:05;;;;;;;15.40;13.77;;;13.50;99.90;;;;;;4995570;28;20466;-73
2022/01/01 04:44:32;;;;;;;16.40;15.00;;;13.50;99.90;;;;;;5003545;28;20509;-71
2022/01/01 04:46:59;;;;;;;18.03;13.00;;;13.50;99.90;;;;;;5003890;28;21175;-73
2022/01/01 04:49:26;;;;;;;15.80;14.13;;;13.50;99.90;;;;;;4997455;28;20473;-70
2022/01/01 04:51:52;;;;;;;14.73;13.23;;;13.60;99.90;;;;;;4997953;28;20482;-70
2022/01/01 04:54:21;;;;;;;14.03;12.83;;;13.50;99.90;;;;;;5001801;28;20461;-69
2022/01/01 04:56:48;;;;;;;16.97;12.80;;;13.60;99.90;;;;;;5000135;28;20470;-72
2022/01/01 04:59:17;;;;;;;14.20;12.80;;;13.50;99.90;;;;;;5000824;28;20548;-69
2022/01/01 05:01:43;;;;;;;14.10;12.80;;;13.50;99.90;;;;;;4997738;28;20463;-70
2022/01/01 05:04:11;;;;;;;14.17;12.90;;;13.50;99.90;;;;;;4992113;28;20497;-70
2022/01/01 05:06:40;;;;;;;14.60;13.30;;;13.50;99.90;;;;;;4998437;28;20477;-70
2022/01/01 05:09:07;;;;;;;14.03;12.70;;;13.50;99.90;;;;;;4990650;28;20497;-71
2022/01/01 05:11:36;;;;;;;14.53;13.23;;;13.50;99.90;;;;;;5001199;28;20552;-68
2022/01/01 05:14:02;;;;;;;14.40;13.00;;;13.50;99.90;;;;;;5002950;28;20555;-69
2022/01/01 05:16:29;;;;;;;14.13;12.93;;;13.50;99.90;;;;;;5004985;28;20468;-70
2022/01/01 05:18:57;;;;;;;20.00;13.27;;;13.50;99.90;;;;;;4998138;28;20470;-69
2022/01/01 05:21:23;;;;;;;23.50;13.13;;;13.50;99.90;;;;;;5002368;28;20480;-70
2022/01/01 05:23:50;;;;;;;16.27;13.93;;;13.50;99.90;;;;;;4997755;28;20466;-73
2022/01/01 05:26:17;;;;;;;17.57;12.80;;;13.50;99.90;;;;;;5001292;28;20461;-72
2022/01/01 05:28:49;;;;;;;13.50;12.30;;;13.50;99.90;;;;;;4992931;28;20465;-71
2022/01/01 05:31:15;;;;;;;15.70;13.30;;;13.50;99.90;;;;;;4994370;28;20467;-69
2022/01/01 05:33:42;;;;;;;15.17;13.60;;;13.40;99.90;;;;;;4999646;28;21023;-69
2022/01/01 05:36:09;;;;;;;14.07;12.63;;;13.50;99.90;;;;;;4997404;28;20909;-69
2022/01/01 05:38:36;;;;;;;19.90;13.53;;;13.50;99.90;;;;;;4995944;28;20450;-71
2022/01/01 05:41:03;;;;;;;14.07;12.77;;;13.50;99.90;;;;;;5000934;28;20548;-72
2022/01/01 05:43:30;;;;;;;25.93;12.77;;;13.50;99.90;;;;;;4999419;28;20769;-72
2022/01/01 05:45:58;;;;;;;13.83;12.60;;;13.50;99.90;;;;;;5000704;28;20593;-69
2022/01/01 05:48:25;;;;;;;12.90;11.80;;;13.50;99.90;;;;;;5002567;28;20473;-71
2022/01/01 05:50:52;;;;;;;12.87;12.00;;;13.50;99.90;;;;;;4996437;28;20462;-70
2022/01/01 05:53:19;;;;;;;13.07;11.77;;;13.50;99.90;;;;;;5002056;28;20485;-69
2022/01/01 05:55:47;;;;;;;14.20;12.33;;;13.60;99.90;;;;;;5000242;28;20822;-69
2022/01/01 05:58:14;;;;;;;13.90;12.80;;;13.60;99.90;;;;;;4995817;28;20476;-69
2022/01/01 06:00:41;;;;;;;16.00;13.17;;;13.60;99.90;;;;;;5004750;28;20469;-69
2022/01/01 06:03:09;;;;;;;13.40;12.20;;;13.50;99.90;;;;;;4999139;28;20470;-69
2022/01/01 06:05:37;;;;;;;13.60;12.47;;;13.50;99.90;;;;;;5003999;28;20497;-72
2022/01/01 06:08:05;;;;;;;14.27;12.80;;;13.50;99.90;;;;;;4991468;28;20528;-71
2022/01/01 06:10:32;;;;;;;13.53;12.40;;;13.60;99.90;;;;;;5004980;28;20457;-69
2022/01/01 06:12:59;;;;;;;14.17;12.93;;;13.50;99.90;;;;;;5002498;28;20469;-70
2022/01/01 06:15:26;;;;;;;14.30;12.90;;;13.50;99.90;;;;;;5001775;28;20460;-69
2022/01/01 06:17:53;;;;;;;13.80;12.27;;;13.50;99.90;;;;;;5001497;28;20987;-70
2022/01/01 06:20:22;;;;;;;14.67;12.53;;;13.50;99.90;;;;;;4995872;28;20458;-71
2022/01/01 06:22:49;;;;;;;14.77;13.27;;;13.50;99.90;;;;;;5000932;28;20477;-72
2022/01/01 06:25:16;;;;;;;13.53;12.10;;;13.50;99.90;;;;;;5003215;28;20489;-68
2022/01/01 06:27:43;;;;;;;14.30;12.73;;;13.50;99.90;;;;;;5006505;28;20472;-70
2022/01/01 06:30:11;;;;;;;14.47;13.40;;;13.50;99.90;;;;;;5007329;28;21342;-68
2022/01/01 06:32:38;;;;;;;13.80;12.73;;;13.50;99.90;;;;;;5003463;28;20458;-68
2022/01/01 06:35:06;;;;;;;15.60;13.17;;;13.50;99.90;;;;;;5006692;28;20533;-71
2022/01/01 06:37:35;;;;;;;14.30;13.30;;;13.50;99.90;;;;;;4995755;28;20473;-69
2022/01/01 06:40:02;;;;;;;15.13;12.20;;;13.50;99.90;;;;;;5005622;28;20484;-69
2022/01/01 06:42:28;;;;;;;13.57;12.40;;;13.50;99.90;;;;;;5000694;28;21004;-68
2022/01/01 06:44:55;;;;;;;14.53;13.13;;;13.40;99.90;;;;;;5000964;28;20490;-68
2022/01/01 06:47:22;;;;;;;15.10;12.70;;;13.40;99.90;;;;;;5009523;28;20465;-69
2022/01/01 06:49:49;;;;;;;13.57;12.23;;;13.50;99.90;;;;;;5006144;28;20471;-69
2022/01/01 06:52:16;;;;;;;14.27;12.90;;;13.40;99.90;;;;;;5002787;28;20489;-69
2022/01/01 06:54:44;;;;;;;17.80;12.90;;;13.40;99.90;;;;;;5000351;28;20852;-69
2022/01/01 06:57:11;;;;;;;18.67;12.80;;;13.50;99.90;;;;;;5001873;28;20488;-72
2022/01/01 06:59:38;;;;;;;15.50;14.07;;;13.50;99.90;;;;;;5006201;28;20469;-69
2022/01/01 07:02:04;;;;;;;13.73;12.73;;;13.40;99.90;;;;;;5008178;28;20846;-69
2022/01/01 07:04:31;;;;;;;13.40;12.10;;;13.40;99.90;;;;;;5009206;28;20480;-69
2022/01/01 07:06:58;;;;;;;14.10;12.73;;;13.40;99.90;;;;;;5001455;28;20466;-70
2022/01/01 07:09:25;;;;;;;14.87;13.30;;;13.40;99.90;;;;;;5001335;28;20506;-69
2022/01/01 07:11:57;;;;;;;14.10;12.60;;;13.50;99.90;;;;;;4999338;28;20501;-69
2022/01/01 07:14:23;;;;;;;13.13;12.10;;;13.40;99.90;;;;;;4998196;28;20469;-72
2022/01/01 07:16:51;;;;;;;12.80;11.80;;;13.50;99.90;;;;;;5002956;28;21119;-69
2022/01/01 07:19:18;;;;;;;14.40;12.80;;;13.50;99.90;;;;;;4999737;28;20462;-70
2022/01/01 07:21:44;;;;;;;13.93;12.53;;;13.50;99.90;;;;;;5000606;28;20462;-70
2022/01/01 07:24:12;;;;;;;12.83;11.63;;;13.50;99.90;;;;;;5002876;28;20465;-69
2022/01/01 07:26:38;;;;;;;13.03;12.03;;;13.50;99.90;;;;;;5002764;28;20462;-69
2022/01/01 07:29:06;;;;;;;12.90;11.83;;;13.50;99.90;;;;;;4996206;28;20518;-69
2022/01/01 07:31:33;;;;;;;13.77;12.77;;;13.50;99.90;;;;;;5009247;28;20462;-73
2022/01/01 07:34:00;;;;;;;13.93;12.50;;;13.50;99.90;;;;;;4999773;28;20475;-69
2022/01/01 07:36:27;;;;;;;14.83;12.10;;;13.40;99.90;;;;;;4997750;28;20496;-71
2022/01/01 07:38:54;;;;;;;13.23;12.23;;;13.40;99.90;;;;;;4999601;28;20473;-71
2022/01/01 07:41:20;;;;;;;14.37;13.10;;;13.40;99.90;;;;;;5001276;28;20473;-69
2022/01/01 07:43:47;;;;;;;14.37;13.10;;;13.40;99.90;;;;;;4998690;28;20808;-70
2022/01/01 07:46:16;;;;;;;15.07;12.73;;;13.40;99.90;;;;;;4998461;28;20498;-72
2022/01/01 07:48:42;;;;;;;13.17;12.30;;;13.40;99.90;;;;;;4999832;28;20462;-69
2022/01/01 07:51:09;;;;;;;14.50;13.10;;;13.40;99.90;;;;;;5004602;28;20477;-70
2022/01/01 07:53:36;;;;;;;15.37;14.00;;;13.40;99.90;;;;;;4999023;28;21042;-71
2022/01/01 07:56:03;;;;;;;14.30;13.00;;;13.50;99.90;;;;;;4999058;28;20453;-69
2022/01/01 07:58:31;;;;;;;13.73;12.60;;;13.40;99.90;;;;;;4993641;28;20466;-70
2022/01/01 08:00:57;;;;;;;14.27;12.90;;;13.40;99.90;;;;;;4997870;28;20473;-69
2022/01/01 08:03:26;;;;;;;13.43;12.43;;;13.40;99.90;;;;;;5002101;28;20474;-70
2022/01/01 08:05:53;;;;;;;14.70;13.40;;;13.40;99.90;;;;;;4998317;28;20502;-69
2022/01/01 08:08:20;;;;;;;13.43;12.57;;;13.40;99.90;;;;;;5003106;28;20465;-70
2022/01/01 08:10:46;;;;;;;13.80;12.60;;;13.40;99.90;;;;;;5004449;28;20458;-70
2022/01/01 08:13:21;;;;;;;13.00;12.10;;;13.40;99.90;;;;;;4994754;28;20463;-69
2022/01/01 08:15:48;;;;;;;14.43;13.17;;;13.50;99.90;;;;;;4996867;28;20458;-69
2022/01/01 08:18:15;;;;;;;17.90;14.07;;;13.50;99.90;;;;;;5004940;28;20467;-69
2022/01/01 08:20:44;;;;;;;13.60;12.47;;;13.50;99.90;;;;;;5002393;28;20497;-70
2022/01/01 08:23:12;;;;;;;13.30;12.10;;;13.60;99.90;;;;;;5002645;28;20465;-69
2022/01/01 08:25:40;;;;;;;15.17;12.57;;;13.60;99.90;;;;;;5001418;28;20485;-72
2022/01/01 08:28:09;;;;;;;14.27;12.93;;;13.60;99.90;;;;;;5002262;28;20469;-69
2022/01/01 08:30:36;;;;;;;14.50;13.50;;;13.70;99.90;;;;;;4999065;28;20460;-69
2022/01/01 08:33:03;;;;;;;14.17;13.07;;;13.80;99.90;;;;;;5003263;28;20457;-69
2022/01/01 08:35:30;;;;;;;15.00;13.50;;;13.80;99.90;;;;;;5004781;28;20477;-69
2022/01/01 08:37:59;;;;;;;14.57;13.13;;;13.80;99.90;;;;;;5002423;28;20462;-69
2022/01/01 08:40:26;;;;;;;14.10;13.20;;;13.80;99.90;;;;;;4998440;28;20536;-69
2022/01/01 08:42:52;;;;;;;14.03;13.03;;;13.80;99.90;;;;;;5000090;28;20466;-69
2022/01/01 08:45:19;;;;;;;14.67;13.20;;;13.80;99.90;;;;;;5000180;28;20501;-69
2022/01/01 08:47:46;;;;;;;14.00;12.90;;;13.70;99.90;;;;;;5001664;28;20469;-71
2022/01/01 08:50:14;;;;;;;13.50;12.57;;;13.70;99.90;;;;;;5002996;28;20458;-71
2022/01/01 08:52:41;;;;;;;17.53;13.77;;;13.60;99.90;;;;;;5000151;28;20485;-69
2022/01/01 08:55:10;;;;;;;14.13;12.80;;;13.60;99.90;;;;;;4999370;28;20461;-69
2022/01/01 08:57:37;;;;;;;14.40;13.20;;;13.60;99.90;;;;;;5003827;28;20476;-69
2022/01/01 09:00:07;;;;;;;14.40;13.40;;;13.60;99.90;;;;;;5000564;28;20478;-69
2022/01/01 09:02:34;;;;;;;14.43;13.27;;;13.50;99.90;;;;;;5008945;28;20489;-71
2022/01/01 09:05:01;;;;;;;14.63;13.50;;;13.60;99.90;;;;;;4997428;28;20485;-69
2022/01/01 09:07:29;;;;;;;14.20;13.23;;;13.60;99.90;;;;;;5001075;28;20469;-68
2022/01/01 09:09:56;;;;;;;14.27;13.07;;;13.60;99.90;;;;;;5000978;28;20479;-69
2022/01/01 09:12:24;;;;;;;17.40;14.63;;;13.50;99.90;;;;;;5000103;28;20473;-69
2022/01/01 09:14:51;;;;;;;13.83;12.80;;;13.50;99.90;;;;;;5001469;28;20656;-71
2022/01/01 09:17:19;;;;;;;15.47;14.07;;;13.70;99.90;;;;;;4999537;28;20548;-71
2022/01/01 09:19:46;;;;;;;14.27;12.50;;;13.80;99.90;;;;;;4997021;28;20592;-70
2022/01/01 09:22:13;;;;;;;13.27;12.40;;;13.70;99.90;;;;;;4997533;28;20458;-71
2022/01/01 09:24:40;;;;;;;14.07;12.97;;;13.70;99.90;;;;;;5002503;28;20501;-70
2022/01/01 09:27:07;;;;;;;14.50;13.40;;;13.90;99.90;;;;;;5000412;28;20559;-69
2022/01/01 09:29:36;;;;;;;15.00;13.90;;;13.80;99.90;;;;;;5001162;28;20476;-69
2022/01/01 09:32:03;;;;;;;15.93;14.43;;;13.80;99.90;;;;;;5000005;28;20799;-72
2022/01/01 09:34:30;;;;;;;15.73;14.33;;;13.90;99.90;;;;;;4999638;28;20473;-70
2022/01/01 09:36:57;;;;;;;15.43;13.93;;;13.90;99.90;;;;;;4991184;28;20473;-69
2022/01/01 09:39:25;;;;;;;14.07;12.87;;;14.10;99.90;;;;;;4996703;28;20507;-71
2022/01/01 09:41:52;;;;;;;13.93;12.83;;;14.20;99.90;;;;;;4997214;28;20834;-71
2022/01/01 09:44:20;;;;;;;13.40;12.60;;;14.20;99.90;;;;;;4998420;28;20881;-69
2022/01/01 09:46:50;;;;;;;14.57;13.37;;;14.10;99.90;;;;;;4996173;28;20494;-70
2022/01/01 09:49:18;;;;;;;14.90;13.90;;;14.20;99.90;;;;;;5003131;28;20469;-73
2022/01/01 09:51:46;;;;;;;14.40;13.10;;;14.30;99.90;;;;;;5000301;28;20462;-69
2022/01/01 09:54:13;;;;;;;14.30;13.30;;;14.40;99.90;;;;;;5004135;28;20466;-70
2022/01/01 09:56:40;;;;;;;15.27;14.17;;;14.50;99.90;;;;;;4996180;28;20571;-69
2022/01/01 09:59:07;;;;;;;14.30;13.40;;;14.40;99.90;;;;;;4998253;28;20469;-70
2022/01/01 10:01:35;;;;;;;15.83;14.43;;;14.60;99.90;;;;;;4999681;28;20591;-69
2022/01/01 10:04:12;;;;;;;14.83;13.70;;;14.50;99.90;;;;;;5007916;28;20979;-71
2022/01/01 10:06:39;;;;;;;15.00;14.00;;;14.60;99.90;;;;;;4999850;28;20493;-69
2022/01/01 10:09:09;;;;;;;14.70;13.60;;;14.60;99.90;;;;;;5004082;28;20549;-69
2022/01/01 10:11:37;;;;;;;15.07;13.87;;;14.50;99.90;;;;;;5003026;28;20461;-71
2022/01/01 10:14:06;;;;;;;14.60;13.40;;;14.60;99.90;;;;;;4998823;28;21199;-70
2022/01/01 10:16:33;;;;;;;15.77;14.33;;;14.60;99.90;;;;;;5004514;28;20461;-69
2022/01/01 10:19:04;;;;;;;14.07;13.07;;;14.60;99.90;;;;;;5007490;28;20829;-69
2022/01/01 10:21:38;;;;;;;14.97;13.90;;;14.80;99.90;;;;;;5008504;28;20457;-69
2022/01/01 10:24:12;;;;;;;15.23;14.07;;;14.80;99.90;;;;;;5004139;28;20470;-70
2022/01/01 10:29:26;;;;;;;15.77;14.40;;;15.00;99.90;;;;;;5004964;28;20542;-69
2022/01/01 10:31:59;;;;;;;14.93;13.37;;;15.00;99.90;;;;;;5003269;28;20466;-69
2022/01/01 10:34:29;;;;;;;14.37;13.57;;;15.00;99.90;;;;;;5006446;28;20465;-71
2022/01/01 10:36:56;;;;;;;13.23;12.43;;;15.20;99.90;;;;;;4998579;28;20470;-70
2022/01/01 10:39:25;;;;;;;15.60;14.20;;;15.20;99.90;;;;;;5009967;28;20462;-70
2022/01/01 10:41:55;;;;;;;14.23;13.13;;;15.10;99.90;;;;;;5006151;28;20466;-69
2022/01/01 10:44:27;;;;;;;15.00;13.90;;;15.00;99.90;;;;;;4998980;28;20472;-69
2022/01/01 10:46:54;;;;;;;15.57;13.37;;;15.00;99.90;;;;;;4998552;28;20846;-69
2022/01/01 10:49:43;;;;;;;14.07;12.90;;;15.10;99.90;;;;;;5001144;28;21027;-69
2022/01/01 10:52:17;;;;;;;14.47;13.37;;;15.00;99.90;;;;;;4997288;28;20478;-71
2022/01/01 10:54:52;;;;;;;13.80;12.80;;;15.20;99.90;;;;;;5001300;28;20466;-70
2022/01/01 10:57:24;;;;;;;13.83;12.80;;;15.10;99.90;;;;;;5006442;28;21543;-69
2022/01/01 10:59:51;;;;;;;21.00;13.83;;;15.10;99.90;;;;;;5007335;28;20485;-69
2022/01/01 11:02:23;;;;;;;15.00;13.40;;;15.10;99.90;;;;;;5004553;28;20532;-73
2022/01/01 11:04:50;;;;;;;15.17;14.07;;;15.00;99.90;;;;;;5003970;28;20569;-70
2022/01/01 11:07:27;;;;;;;16.93;13.67;;;15.10;99.90;;;;;;5003403;28;20501;-71
2022/01/01 11:09:55;;;;;;;16.27;14.97;;;15.10;99.90;;;;;;5006948;28;20466;-71
2022/01/01 11:12:24;;;;;;;15.93;13.60;;;15.10;99.90;;;;;;5004378;28;20466;-69
2022/01/01 11:14:52;;;;;;;15.43;14.40;;;15.10;99.90;;;;;;5001224;28;20501;-69
2022/01/01 11:17:20;;;;;;;15.30;13.93;;;15.10;99.90;;;;;;5003664;28;20466;-69
2022/01/01 11:19:48;;;;;;;14.50;13.10;;;15.30;99.90;;;;;;5004407;28;20528;-72
2022/01/01 11:22:15;;;;;;;15.57;14.10;;;15.50;99.90;;;;;;5005799;28;20472;-69
2022/01/01 11:24:44;;;;;;;15.20;14.00;;;15.60;99.90;;;;;;4999869;28;20995;-69
2022/01/01 11:27:10;;;;;;;15.70;14.30;;;15.70;99.90;;;;;;4998400;28;20505;-69
2022/01/01 11:29:40;;;;;;;15.50;14.00;;;15.60;99.90;;;;;;4991813;28;20469;-69
2022/01/01 11:32:11;;;;;;;15.37;13.77;;;15.80;99.90;;;;;;5001442;28;20462;-73
2022/01/01 11:34:40;;;;;;;16.60;13.90;;;15.80;99.90;;;;;;4999584;28;20957;-69
2022/01/01 11:37:07;;;;;;;15.03;13.83;;;15.80;99.90;;;;;;4999618;28;20469;-73
2022/01/01 11:39:33;;;;;;;14.90;13.83;;;15.90;99.90;;;;;;5000909;28;20467;-72
2022/01/01 11:42:12;;;;;;;15.40;14.37;;;15.80;99.90;;;;;;5002584;28;20674;-69
2022/01/01 11:44:42;;;;;;;15.47;14.30;;;16.00;99.90;;;;;;5002624;28;20868;-72
2022/01/01 11:47:16;;;;;;;14.40;13.23;;;16.30;99.90;;;;;;5002793;28;20503;-69
2022/01/01 11:49:43;;;;;;;14.80;13.50;;;16.60;99.90;;;;;;5000308;28;20478;-70
2022/01/01 11:52:10;;;;;;;15.70;14.30;;;16.80;99.90;;;;;;5006124;28;20497;-69
2022/01/01 11:54:38;;;;;;;14.47;13.40;;;17.10;99.90;;;;;;5005971;28;20819;-69
2022/01/01 11:57:18;;;;;;;15.83;14.10;;;17.70;99.90;;;;;;5000591;28;20469;-69
2022/01/01 11:59:51;;;;;;;15.50;14.30;;;17.90;99.90;;;;;;5001824;28;20468;-69
2022/01/01 12:02:48;;;;;;;15.27;14.07;;;17.90;99.90;;;;;;5003904;28;20577;-69
2022/01/01 12:05:22;;;;;;;15.73;14.70;;;17.80;99.90;;;;;;4991361;28;20469;-70
2022/01/01 12:07:55;;;;;;;15.93;14.73;;;18.00;99.90;;;;;;4996061;28;20485;-71
2022/01/01 12:10:27;;;;;;;15.33;14.03;;;17.90;99.90;;;;;;5001080;28;20596;-72
2022/01/01 12:12:57;;;;;;;15.37;13.63;;;17.80;99.90;;;;;;4997613;28;20502;-69
2022/01/01 12:15:27;;;;;;;15.77;14.10;;;17.70;99.90;;;;;;5005611;28;20500;-69
2022/01/01 12:17:57;;;;;;;14.80;13.80;;;17.50;99.90;;;;;;5000426;28;20983;-71
2022/01/01 12:20:28;;;;;;;14.87;13.77;;;18.00;99.90;;;;;;4994363;28;20461;-71
2022/01/01 12:22:55;;;;;;;14.60;13.50;;;18.50;99.90;;;;;;5001521;28;20465;-72
2022/01/01 12:25:25;;;;;;;18.13;13.50;;;18.60;99.90;;;;;;4997553;28;20473;-69
2022/01/01 12:27:56;;;;;;;14.77;13.87;;;19.20;99.90;;;;;;5004909;28;20501;-72
2022/01/01 12:30:37;;;;;;;14.63;13.73;;;19.50;99.90;;;;;;4999065;28;20553;-69
2022/01/01 12:33:05;;;;;;;14.17;13.03;;;19.50;99.90;;;;;;4994778;28;20468;-69
2022/01/01 12:35:43;;;;;;;14.60;13.60;;;19.50;99.90;;;;;;5001525;28;20477;-72